首页
METAR-TAF:

METAR-TAF

机场 :

普尔曼-莫斯科区域机场

普尔曼 / 莫斯科, 华盛顿, 美国

纬度: 46-44-38N, 经度: 117-06-35W, 海拔: 779米

当前天气观测

该预报发布于20分钟前的23:53 UTC
风速5节,风向多变
温度 31°C
湿度 13%
气压 1016 hPa
能見度: 16.1公里
天空无云

METAR: KPUW 152353Z AUTO VRB05KT 10SM CLR 31/M01 A3001 RMK AO2 SLP145 T03111006 10317 20272 58013

时间: 17:13 (00:13 UTC)

预报

该预报发布于53分钟前的23:20 UTC
预报有效从16日的 00点(UTC)到 16日的 24点(UTC)
风速10节,风向西,有时为19节阵风
能見度: 10公里
天空无云
从 16日的 0200点(UTC)
风速3节,风向多变
能見度: 10公里
天空无云

TAF: KPUW 152320Z 1600/1624 26010G19KT P6SM SKC FM160200 VRB03KT P6SM SKC

超过4000个机场的气象观测和天气预报(METAR&TAF报告)。

可查询的气象台以黄色和红色小点在地图上表示。

将鼠标移到小点上方,可查看气象台名称。

然后点击查看天气观测和预报。

如需切换地图:点击带黑十字的绿色按钮放大地图;点击带横线的绿色按钮缩小地图;或者点击绿色箭头查看邻近地区的地图。


METAR-TAF: